Time;durP1;ratioP1;P1;durP2;ratioP2;P2;SDS_P1;SDS_P2;PMS_P1;PMS_P2;Temp;Humidity;BMP_temperature;BMP_pressure;BME280_temperature;BME280_humidity;BME280_pressure;Samples;Min_cycle;Max_cycle;Signal;HPM_P1;HPM_P2
2021/03/11 00:00:39;;;;;;;;;;;;;;;2.03;67.00;92652.19;1048832;57;20101;-84
2021/03/11 00:01:39;;;;;;;;;;;;;;;2.19;65.32;92657.84;1050906;56;20113;-84
2021/03/11 00:02:40;;;;;;;;;;;;;;;2.21;65.97;92645.06;1050533;56;20164;-86
2021/03/11 00:03:41;;;;;;;;;;;;;;;2.43;62.73;92645.09;1046533;56;20755;-86
2021/03/11 00:04:43;;;;;;;;;;;;;;;2.41;64.48;92639.44;1048972;56;20192;-85
2021/03/11 00:05:44;;;;;;;;;;;;;;;2.37;64.56;92628.91;1048842;56;20279;-86
2021/03/11 00:06:44;;;;;;;;;;;;;;;2.48;64.45;92632.28;1046739;56;20260;-83
2021/03/11 00:07:45;;;;;;;;;;;;;;;2.52;63.31;92629.66;1048502;57;20169;-85
2021/03/11 00:08:45;;;;;;;;;;;;;;;2.57;61.58;92636.44;1048732;56;20105;-84
2021/03/11 00:09:45;;;;;;;;;;;;;;;2.61;63.46;92645.13;1053017;56;20101;-83
2021/03/11 00:11:49;;;;;;;;;;;;;;;2.92;60.72;92631.16;1054678;49;20140;-84
2021/03/11 00:13:02;;;;;;;;;;;;;;;3.10;58.26;92640.94;1310565;39;21219;-83
2021/03/11 00:14:03;;;;;;;;;;;;;;;3.34;57.57;92634.88;1060573;49;20180;-84
2021/03/11 00:15:07;;;;;;;;;;;;;;;3.31;57.55;92632.97;1054729;56;20208;-85
2021/03/11 00:16:07;;;;;;;;;;;;;;;3.54;57.33;92638.56;1057335;56;20190;-85
2021/03/11 00:17:07;;;;;;;;;;;;;;;3.48;58.05;92628.78;1053185;56;20152;-85
2021/03/11 00:18:09;;;;;;;;;;;;;;;3.47;57.68;92633.31;1053170;56;20175;-84
2021/03/11 00:19:09;;;;;;;;;;;;;;;3.67;57.58;92640.81;1056290;56;20139;-84
2021/03/11 00:20:11;;;;;;;;;;;;;;;3.73;57.87;92641.91;1054779;56;20195;-85
2021/03/11 00:21:11;;;;;;;;;;;;;;;3.76;58.13;92643.78;1053256;56;20273;-84
2021/03/11 00:22:11;;;;;;;;;;;;;;;3.72;58.19;92633.22;1056973;56;20214;-85
2021/03/11 00:23:12;;;;;;;;;;;;;;;3.77;58.42;92634.72;1053544;56;20195;-85
2021/03/11 00:24:12;;;;;;;;;;;;;;;3.80;57.82;92628.66;1055077;56;21315;-85
2021/03/11 00:25:13;;;;;;;;;;;;;;;3.90;57.45;92629.75;1057174;56;20132;-85
2021/03/11 00:26:13;;;;;;;;;;;;;;;3.82;58.95;92620.34;1052738;56;20203;-87
2021/03/11 00:27:14;;;;;;;;;;;;;;;3.98;57.50;92639.91;1053624;56;20186;-84
2021/03/11 00:28:14;;;;;;;;;;;;;;;4.08;57.65;92619.84;1052636;56;20156;-84
2021/03/11 00:29:14;;;;;;;;;;;;;;;4.12;57.59;92619.81;1054409;56;20104;-85
2021/03/11 00:30:15;;;;;;;;;;;;;;;4.00;58.59;92611.19;1059367;56;20178;-84
2021/03/11 00:32:22;;;;;;;;;;;;;;;3.94;58.04;92615.37;1435864;39;20575;31
2021/03/11 00:33:23;;;;;;;;;;;;;;;3.87;58.78;92615.44;1056214;48;20133;-86
2021/03/11 00:35:30;;;;;;;;;;;;;;;3.87;59.40;92623.34;1155415;39;21251;31
2021/03/11 00:36:45;;;;;;;;;;;;;;;3.85;59.17;92619.59;877592;39;20557;31
2021/03/11 00:37:50;;;;;;;;;;;;;;;3.88;59.73;92619.56;1257823;39;20095;31
2021/03/11 00:41:01;;;;;;;;;;;;;;;3.97;60.15;92624.44;1221805;39;20277;31
2021/03/11 00:42:05;;;;;;;;;;;;;;;3.92;59.54;92627.50;1396436;39;21825;31
2021/03/11 00:43:05;;;;;;;;;;;;;;;3.94;59.91;92630.50;1060157;49;21551;-84
2021/03/11 00:45:10;;;;;;;;;;;;;;;4.04;59.35;92619.88;1219724;39;20238;-86
2021/03/11 00:46:13;;;;;;;;;;;;;;;4.08;59.75;92622.47;1422568;39;22057;31
2021/03/11 00:48:20;;;;;;;;;;;;;;;4.07;59.56;92620.22;1430545;39;21669;31
2021/03/11 00:49:34;;;;;;;;;;;;;;;4.02;60.44;92613.44;1421754;39;21264;31
2021/03/11 00:50:38;;;;;;;;;;;;;;;4.00;61.21;92616.50;1435509;39;20316;31
2021/03/11 00:51:43;;;;;;;;;;;;;;;4.06;60.37;92619.47;1153305;39;20206;31
2021/03/11 00:53:52;;;;;;;;;;;;;;;4.01;61.96;92610.06;1438605;39;20506;31
2021/03/11 00:55:07;;;;;;;;;;;;;;;4.01;61.24;92612.69;1419176;39;20533;31
2021/03/11 00:56:11;;;;;;;;;;;;;;;3.98;62.52;92615.34;1427077;39;20261;31
2021/03/11 00:57:11;;;;;;;;;;;;;;;4.00;62.58;92607.81;1064170;49;20942;-90
2021/03/11 00:59:15;;;;;;;;;;;;;;;4.08;62.79;92608.50;1064160;48;20298;-84
2021/03/11 01:00:19;;;;;;;;;;;;;;;4.11;62.33;92605.09;1054898;56;20218;-85
2021/03/11 01:01:24;;;;;;;;;;;;;;;4.03;62.96;92602.47;1387083;39;20171;31
2021/03/11 01:02:24;;;;;;;;;;;;;;;4.01;63.29;92604.78;1058802;49;20183;-85
2021/03/11 01:05:35;;;;;;;;;;;;;;;4.09;63.13;92594.16;1441294;39;20617;31
2021/03/11 01:06:40;;;;;;;;;;;;;;;4.08;62.63;92584.69;1270839;39;20196;31
2021/03/11 01:08:56;;;;;;;;;;;;;;;4.01;63.72;92580.22;1189842;39;20850;31
2021/03/11 01:10:10;;;;;;;;;;;;;;;4.07;64.18;92580.56;1116910;39;20413;31
2021/03/11 01:13:18;;;;;;;;;;;;;;;3.98;63.13;92573.81;1447594;39;20263;31
2021/03/11 01:14:23;;;;;;;;;;;;;;;3.95;64.59;92571.94;1404031;39;21578;31
2021/03/11 01:15:28;;;;;;;;;;;;;;;3.97;63.50;92564.38;1138245;39;21100;31
2021/03/11 01:16:31;;;;;;;;;;;;;;;4.04;62.98;92564.34;1345120;39;21259;-86
2021/03/11 01:17:33;;;;;;;;;;;;;;;3.98;63.18;92565.12;1418291;39;20318;-83
2021/03/11 01:18:47;;;;;;;;;;;;;;;3.98;63.30;92563.22;1381844;39;20662;-86
2021/03/11 01:20:01;;;;;;;;;;;;;;;3.94;63.69;92564.38;1382727;39;20190;-86
2021/03/11 01:21:02;;;;;;;;;;;;;;;3.95;63.50;92560.59;1060232;49;20608;-86
2021/03/11 01:22:06;;;;;;;;;;;;;;;3.93;63.11;92562.87;1407256;39;21427;31
2021/03/11 01:23:06;;;;;;;;;;;;;;;3.99;64.02;92569.25;1057149;48;20797;-83
2021/03/11 01:24:07;;;;;;;;;;;;;;;4.02;62.52;92569.25;1050065;56;20278;-84
2021/03/11 01:25:08;;;;;;;;;;;;;;;3.98;63.07;92565.12;1053547;56;20238;-85
2021/03/11 01:26:08;;;;;;;;;;;;;;;3.94;63.06;92551.91;1051438;56;20231;-84
2021/03/11 01:27:08;;;;;;;;;;;;;;;3.99;63.34;92558.69;1051799;56;20326;-85
2021/03/11 01:28:22;;;;;;;;;;;;;;;4.12;63.73;92559.75;1059677;39;20195;31
2021/03/11 01:29:25;;;;;;;;;;;;;;;3.99;63.24;92554.16;1420066;39;20232;31
2021/03/11 01:30:26;;;;;;;;;;;;;;;3.90;63.92;92550.44;1054145;49;20121;-84
2021/03/11 01:31:30;;;;;;;;;;;;;;;3.85;63.00;92546.31;1165912;39;20209;31
2021/03/11 01:32:33;;;;;;;;;;;;;;;3.98;62.46;92542.06;1281253;39;20641;31
2021/03/11 01:34:40;;;;;;;;;;;;;;;3.99;62.85;92545.47;1091807;39;20283;31
2021/03/11 01:38:47;;;;;;;;;;;;;;;4.09;61.48;92525.41;1057037;56;21043;-83
2021/03/11 01:40:47;;;;;;;;;;;;;;;4.04;60.81;92516.75;1057133;56;20305;-83
2021/03/11 01:41:48;;;;;;;;;;;;;;;4.11;60.16;92518.56;1053493;56;20206;-84
2021/03/11 01:42:49;;;;;;;;;;;;;;;4.10;60.82;92517.06;1052364;56;21047;-83
2021/03/11 01:43:52;;;;;;;;;;;;;;;4.07;61.06;92517.84;1054579;56;20176;-83
2021/03/11 01:44:53;;;;;;;;;;;;;;;4.20;60.21;92518.13;1055588;56;20787;-84
2021/03/11 01:45:53;;;;;;;;;;;;;;;4.12;60.40;92511.38;1052538;56;20243;-84
2021/03/11 01:46:54;;;;;;;;;;;;;;;4.23;60.81;92512.06;1048474;56;20197;-83
2021/03/11 01:49:02;;;;;;;;;;;;;;;4.18;61.27;92509.84;1439989;39;20293;31
2021/03/11 01:50:07;;;;;;;;;;;;;;;3.99;61.28;92513.75;1395327;39;20196;31
2021/03/11 01:51:11;;;;;;;;;;;;;;;4.02;60.63;92519.00;1324630;39;20248;31
2021/03/11 01:53:15;;;;;;;;;;;;;;;4.11;60.29;92507.25;1325888;39;20351;31
2021/03/11 01:54:29;;;;;;;;;;;;;;;4.05;60.20;92504.28;1423120;39;21213;31
2021/03/11 01:55:43;;;;;;;;;;;;;;;4.04;60.98;92498.22;1422958;39;22199;31
2021/03/11 01:56:48;;;;;;;;;;;;;;;4.19;59.76;92492.84;1443843;39;20234;31
2021/03/11 01:58:55;;;;;;;;;;;;;;;4.15;58.94;92476.97;1404007;39;20556;31
2021/03/11 02:00:01;;;;;;;;;;;;;;;4.18;59.11;92475.47;1433113;39;20266;31
2021/03/11 02:01:05;;;;;;;;;;;;;;;4.32;57.80;92475.34;1369058;39;20254;31
2021/03/11 02:03:10;;;;;;;;;;;;;;;4.53;56.56;92469.09;1438695;39;20910;-87
2021/03/11 02:04:13;;;;;;;;;;;;;;;4.53;56.48;92453.97;1436512;39;20595;31
2021/03/11 02:05:16;;;;;;;;;;;;;;;4.53;56.94;92467.22;1418811;39;22061;31
2021/03/11 02:10:24;;;;;;;;;;;;;;;4.65;55.93;92444.00;1058712;56;20278;-85
2021/03/11 02:13:00;;;;;;;;;;;;;;;4.75;56.39;92441.28;1060293;48;20723;-84
2021/03/11 02:14:09;;;;;;;;;;;;;;;4.87;57.38;92450.59;1051969;56;21535;-84
2021/03/11 02:15:23;;;;;;;;;;;;;;;4.88;56.52;92448.72;1434889;39;20167;31
2021/03/11 02:16:28;;;;;;;;;;;;;;;4.98;56.79;92450.47;1054913;49;20148;-84
2021/03/11 02:17:35;;;;;;;;;;;;;;;5.15;57.31;92438.16;1049437;56;20267;-86
2021/03/11 02:20:03;;;;;;;;;;;;;;;5.05;57.44;92437.16;1060720;48;21034;-82
2021/03/11 02:21:18;;;;;;;;;;;;;;;5.20;56.78;92422.56;1054446;56;20152;-82
2021/03/11 02:22:41;;;;;;;;;;;;;;;5.18;56.88;92429.41;1055482;56;20137;-83
2021/03/11 02:24:00;;;;;;;;;;;;;;;5.11;58.67;92424.22;1048333;56;20196;-83
2021/03/11 02:25:00;;;;;;;;;;;;;;;5.19;57.73;92434.31;1054221;56;20254;-83
2021/03/11 02:26:38;;;;;;;;;;;;;;;5.23;56.88;92435.03;1056470;56;20231;-84
2021/03/11 02:27:51;;;;;;;;;;;;;;;5.17;58.24;92420.72;1046350;56;20243;-82
2021/03/11 02:29:01;;;;;;;;;;;;;;;5.29;56.64;92419.44;1045705;57;20237;-83
2021/03/11 02:30:02;;;;;;;;;;;;;;;5.41;56.18;92410.19;1046935;56;20165;-84
2021/03/11 02:31:03;;;;;;;;;;;;;;;5.36;56.95;92408.75;1049186;56;20265;-83
2021/03/11 02:32:06;;;;;;;;;;;;;;;5.37;56.39;92420.09;1047721;57;20196;-84
2021/03/11 02:33:08;;;;;;;;;;;;;;;5.36;56.03;92406.09;1049971;56;20188;-83
2021/03/11 02:34:18;;;;;;;;;;;;;;;5.32;57.44;92399.34;1052023;56;20112;-84
2021/03/11 02:35:19;;;;;;;;;;;;;;;5.28;56.77;92410.00;1052546;56;20165;-82
2021/03/11 02:36:21;;;;;;;;;;;;;;;5.32;57.75;92405.41;1054567;56;20215;-83
2021/03/11 02:37:24;;;;;;;;;;;;;;;5.36;57.67;92414.06;1053850;56;20725;-82
2021/03/11 02:38:26;;;;;;;;;;;;;;;5.40;57.57;92398.09;1054828;56;20160;-82
2021/03/11 02:39:28;;;;;;;;;;;;;;;5.43;55.87;92398.03;1055912;56;20125;-83
2021/03/11 02:40:30;;;;;;;;;;;;;;;5.44;55.92;92394.22;1054771;56;20706;-83
2021/03/11 02:41:31;;;;;;;;;;;;;;;5.57;56.31;92399.72;1055188;56;20188;-83
2021/03/11 02:42:32;;;;;;;;;;;;;;;5.53;55.69;92391.84;1052879;56;20228;-83
2021/03/11 02:43:33;;;;;;;;;;;;;;;5.56;56.20;92393.69;1187489;39;20152;-85
2021/03/11 02:44:34;;;;;;;;;;;;;;;5.53;56.32;92394.50;1050502;56;21050;-86
2021/03/11 02:45:35;;;;;;;;;;;;;;;5.51;56.19;92396.78;1051227;56;20101;-84
2021/03/11 02:46:35;;;;;;;;;;;;;;;5.47;55.86;92396.09;1048630;56;20129;-88
2021/03/11 02:47:36;;;;;;;;;;;;;;;5.54;56.11;92398.66;1047000;56;20109;-85
2021/03/11 02:48:37;;;;;;;;;;;;;;;5.51;56.54;92402.09;1048644;56;20234;-85
2021/03/11 02:49:38;;;;;;;;;;;;;;;5.50;55.60;92399.84;1048669;56;20208;-85
2021/03/11 02:50:39;;;;;;;;;;;;;;;5.49;56.02;92403.66;1051024;56;20108;-84
2021/03/11 02:51:40;;;;;;;;;;;;;;;5.44;56.84;92386.28;1050839;56;20204;-85
2021/03/11 02:52:41;;;;;;;;;;;;;;;5.47;56.21;92395.34;1050413;56;20168;-84
2021/03/11 02:53:41;;;;;;;;;;;;;;;5.42;57.83;92393.16;1052621;56;20199;-82
2021/03/11 02:54:43;;;;;;;;;;;;;;;5.38;57.41;92411.75;1052464;56;20140;-84
2021/03/11 02:55:43;;;;;;;;;;;;;;;5.50;56.71;92416.50;1052567;56;20187;-83
2021/03/11 02:56:44;;;;;;;;;;;;;;;5.53;57.70;92406.97;1050991;56;20153;-85
2021/03/11 02:57:45;;;;;;;;;;;;;;;5.47;59.05;92416.53;1048874;56;20646;-83
2021/03/11 02:58:46;;;;;;;;;;;;;;;5.47;57.76;92411.25;1050837;56;20165;-83
2021/03/11 02:59:48;;;;;;;;;;;;;;;5.45;58.92;92416.22;1047291;56;20731;-83
2021/03/11 03:00:49;;;;;;;;;;;;;;;5.48;58.61;92405.53;1048483;56;20686;-85
2021/03/11 03:01:51;;;;;;;;;;;;;;;5.46;58.57;92418.44;1050504;56;20153;-85
2021/03/11 03:02:52;;;;;;;;;;;;;;;5.43;59.55;92407.91;1050751;56;20114;-84
2021/03/11 03:03:53;;;;;;;;;;;;;;;5.43;60.33;92402.59;1046314;56;20306;-83
2021/03/11 03:04:55;;;;;;;;;;;;;;;5.34;60.78;92411.03;1048982;56;20151;-84
2021/03/11 03:05:56;;;;;;;;;;;;;;;5.39;60.99;92407.19;1050207;56;20653;-85
2021/03/11 03:06:57;;;;;;;;;;;;;;;5.36;62.17;92398.16;1049441;56;20149;-85
2021/03/11 03:07:59;;;;;;;;;;;;;;;5.28;62.06;92396.75;1048806;56;20121;-84
2021/03/11 03:08:59;;;;;;;;;;;;;;;5.22;63.43;92409.69;1050564;56;20137;-85
2021/03/11 03:10:00;;;;;;;;;;;;;;;5.20;64.91;92405.94;1050910;56;20187;-85
2021/03/11 03:13:13;;;;;;;;;;;;;;;5.11;66.04;92400.38;1052130;49;20129;-84
2021/03/11 03:14:13;;;;;;;;;;;;;;;5.09;66.20;92402.66;1044301;57;20134;-85
2021/03/11 03:15:14;;;;;;;;;;;;;;;5.00;67.85;92403.16;1039709;57;20617;-86
2021/03/11 03:16:16;;;;;;;;;;;;;;;4.95;67.80;92401.69;1040305;57;20198;-85
2021/03/11 03:17:18;;;;;;;;;;;;;;;4.96;68.22;92403.22;1041978;57;20217;-84
2021/03/11 03:18:18;;;;;;;;;;;;;;;4.88;69.01;92393.09;1044080;57;20173;-84
2021/03/11 03:19:19;;;;;;;;;;;;;;;4.90;68.69;92399.50;1044639;57;20149;-83
2021/03/11 03:20:21;;;;;;;;;;;;;;;4.92;69.53;92404.41;1040616;57;20174;-84
2021/03/11 03:21:22;;;;;;;;;;;;;;;4.87;68.80;92391.59;1040035;57;20258;-84
2021/03/11 03:22:23;;;;;;;;;;;;;;;4.84;69.82;92389.75;1038489;57;20190;-85
2021/03/11 03:24:40;;;;;;;;;;;;;;;4.84;70.01;92382.56;1151799;39;20126;-84
2021/03/11 03:25:44;;;;;;;;;;;;;;;4.86;69.86;92398.03;1061774;48;20219;-85
2021/03/11 03:26:44;;;;;;;;;;;;;;;4.78;70.24;92395.47;1053058;56;20228;-85
2021/03/11 03:27:44;;;;;;;;;;;;;;;4.82;70.43;92387.47;1052552;56;20192;-85
2021/03/11 03:28:45;;;;;;;;;;;;;;;4.75;70.97;92383.03;1052435;56;20192;-85
2021/03/11 03:29:45;;;;;;;;;;;;;;;4.71;70.77;92377.03;1049490;56;20192;-86
2021/03/11 03:30:46;;;;;;;;;;;;;;;4.72;71.46;92397.06;1048258;57;20152;-84
2021/03/11 03:31:46;;;;;;;;;;;;;;;4.69;71.60;92370.63;1047719;56;20105;-87
2021/03/11 03:32:47;;;;;;;;;;;;;;;4.84;70.80;92379.91;1052926;56;20218;-85
2021/03/11 03:33:47;;;;;;;;;;;;;;;4.81;70.41;92367.44;1050755;56;20137;-85
2021/03/11 03:35:54;;;;;;;;;;;;;;;4.74;71.45;92372.81;1440443;39;20712;31
2021/03/11 03:37:07;;;;;;;;;;;;;;;4.69;71.51;92371.37;1402218;39;20257;-80
2021/03/11 03:38:21;;;;;;;;;;;;;;;4.66;72.27;92379.37;1423444;39;20303;31
2021/03/11 03:39:35;;;;;;;;;;;;;;;4.70;71.76;92374.78;1384445;39;20294;-86
2021/03/11 03:40:39;;;;;;;;;;;;;;;4.64;72.89;92371.06;1298738;39;20221;31
2021/03/11 03:42:46;;;;;;;;;;;;;;;4.67;72.55;92355.13;1424680;39;20183;31
2021/03/11 03:43:48;;;;;;;;;;;;;;;4.69;73.04;92360.03;1053394;49;20129;-86
2021/03/11 03:44:49;;;;;;;;;;;;;;;4.67;72.84;92359.69;1050362;56;20205;-87
2021/03/11 03:46:57;;;;;;;;;;;;;;;4.64;73.66;92376.34;1443511;39;20250;31
2021/03/11 03:48:01;;;;;;;;;;;;;;;4.63;73.09;92361.63;1348068;39;20224;31
2021/03/11 03:49:14;;;;;;;;;;;;;;;4.62;73.56;92365.41;1427594;39;20274;31
2021/03/11 03:50:28;;;;;;;;;;;;;;;4.61;73.47;92359.38;1245274;39;21604;31
2021/03/11 03:51:31;;;;;;;;;;;;;;;4.74;73.43;92368.31;1392221;39;20295;31
2021/03/11 03:52:33;;;;;;;;;;;;;;;4.71;73.42;92355.84;1052453;49;21991;-87
2021/03/11 03:53:49;;;;;;;;;;;;;;;4.73;73.28;92360.75;1063146;39;21073;31
2021/03/11 03:54:53;;;;;;;;;;;;;;;4.73;72.77;92356.19;1172913;39;20168;31
2021/03/11 03:56:06;;;;;;;;;;;;;;;4.66;73.94;92358.19;1432237;39;20253;31
2021/03/11 03:57:21;;;;;;;;;;;;;;;4.65;73.71;92362.72;1432158;39;20509;31
2021/03/11 03:58:23;;;;;;;;;;;;;;;4.74;73.71;92368.31;1054225;49;20244;-84
2021/03/11 03:59:30;;;;;;;;;;;;;;;4.72;73.97;92372.47;1145845;39;20258;31
2021/03/11 04:00:43;;;;;;;;;;;;;;;4.74;73.70;92349.78;1424576;39;22055;31
2021/03/11 04:01:44;;;;;;;;;;;;;;;4.77;73.54;92354.25;1050752;49;22011;-86
2021/03/11 04:02:45;;;;;;;;;;;;;;;4.76;73.91;92373.19;1133613;39;20340;-84
2021/03/11 04:03:47;;;;;;;;;;;;;;;4.75;73.56;92364.50;1045323;56;21002;-82
2021/03/11 04:04:49;;;;;;;;;;;;;;;4.77;74.23;92353.50;1047244;56;20263;-84
2021/03/11 04:05:50;;;;;;;;;;;;;;;4.75;73.79;92351.25;1051158;56;20210;-84
2021/03/11 04:06:51;;;;;;;;;;;;;;;4.80;74.45;92360.66;1047814;57;20185;-83
2021/03/11 04:07:52;;;;;;;;;;;;;;;4.70;74.02;92358.91;1046497;56;20202;-84
2021/03/11 04:08:54;;;;;;;;;;;;;;;4.68;75.81;92366.47;1045523;57;20208;-83
2021/03/11 04:09:55;;;;;;;;;;;;;;;4.67;75.64;92368.38;1044431;56;20725;-82
2021/03/11 04:10:56;;;;;;;;;;;;;;;4.69;76.07;92362.69;1047170;57;20172;-82
2021/03/11 04:11:57;;;;;;;;;;;;;;;4.70;76.07;92364.94;1049786;56;20117;-81
2021/03/11 04:12:57;;;;;;;;;;;;;;;4.65;75.73;92369.91;1051320;56;20101;-84
2021/03/11 04:13:58;;;;;;;;;;;;;;;4.67;75.94;92364.97;1049257;56;20251;-83
2021/03/11 04:14:59;;;;;;;;;;;;;;;4.65;77.06;92370.66;1047050;56;20578;-84
2021/03/11 04:15:59;;;;;;;;;;;;;;;4.66;76.48;92371.44;1050425;56;20223;-83
2021/03/11 04:17:01;;;;;;;;;;;;;;;4.66;76.82;92368.78;1048173;57;20113;-83
2021/03/11 04:18:02;;;;;;;;;;;;;;;4.64;76.83;92371.06;1050466;56;20153;-84
2021/03/11 04:19:04;;;;;;;;;;;;;;;4.57;77.11;92374.56;1050671;56;20183;-84
2021/03/11 04:21:20;;;;;;;;;;;;;;;4.54;78.24;92375.34;1063671;48;21334;-85
2021/03/11 04:23:36;;;;;;;;;;;;;;;4.57;78.39;92371.16;1230584;39;20249;31
2021/03/11 04:24:51;;;;;;;;;;;;;;;4.60;78.55;92359.75;1435776;39;20258;31
2021/03/11 04:25:55;;;;;;;;;;;;;;;4.52;78.73;92367.03;1441214;39;21037;31
2021/03/11 04:27:04;;;;;;;;;;;;;;;4.47;79.45;92360.28;1433215;39;21457;31
2021/03/11 04:28:08;;;;;;;;;;;;;;;4.45;79.49;92372.41;1321123;39;20309;-87
2021/03/11 04:29:09;;;;;;;;;;;;;;;4.44;79.50;92376.22;1120345;39;21111;-83
2021/03/11 04:30:13;;;;;;;;;;;;;;;4.45;80.44;92369.75;1065826;39;20171;31
2021/03/11 04:31:14;;;;;;;;;;;;;;;4.53;79.66;92363.25;1053224;49;20121;-85
2021/03/11 04:32:15;;;;;;;;;;;;;;;4.44;79.55;92376.97;1047184;56;20141;-86
2021/03/11 04:33:16;;;;;;;;;;;;;;;4.46;80.31;92363.31;1051039;56;20111;-87
2021/03/11 04:35:23;;;;;;;;;;;;;;;4.48;79.65;92348.56;1244973;39;21164;-88
2021/03/11 04:37:27;;;;;;;;;;;;;;;4.44;80.33;92376.22;1062109;48;20245;-84
2021/03/11 04:38:27;;;;;;;;;;;;;;;4.43;80.51;92370.13;1050182;56;20675;-82
2021/03/11 04:39:29;;;;;;;;;;;;;;;4.46;80.17;92387.13;1049781;56;20176;-84
2021/03/11 04:40:29;;;;;;;;;;;;;;;4.41;80.98;92363.75;1049475;56;20141;-83
2021/03/11 04:41:30;;;;;;;;;;;;;;;4.47;80.39;92370.84;1051003;56;20156;-84
2021/03/11 04:42:30;;;;;;;;;;;;;;;4.42;80.66;92371.28;1050062;56;20840;-83
2021/03/11 04:43:31;;;;;;;;;;;;;;;4.43;80.97;92369.41;1052083;56;20223;-83
2021/03/11 04:44:31;;;;;;;;;;;;;;;4.45;81.04;92365.22;1050768;56;20235;-84
2021/03/11 04:45:32;;;;;;;;;;;;;;;4.52;80.56;92374.97;1047348;57;20702;-83
2021/03/11 04:46:33;;;;;;;;;;;;;;;4.49;80.72;92365.19;1047612;56;20962;-85
2021/03/11 04:47:34;;;;;;;;;;;;;;;4.47;81.26;92362.91;1051473;56;20117;-83
2021/03/11 04:48:35;;;;;;;;;;;;;;;4.47;81.52;92368.22;1052176;56;20192;-85
2021/03/11 04:49:36;;;;;;;;;;;;;;;4.44;81.45;92362.97;1052435;56;20176;-84
2021/03/11 04:50:38;;;;;;;;;;;;;;;4.48;80.80;92364.44;1050091;56;20820;-83
2021/03/11 04:51:39;;;;;;;;;;;;;;;4.53;80.77;92371.94;1050444;56;20164;-83
2021/03/11 04:52:40;;;;;;;;;;;;;;;4.50;80.64;92367.44;1050913;56;20646;-84
2021/03/11 04:53:40;;;;;;;;;;;;;;;4.50;80.09;92358.75;1050906;56;20956;-85
2021/03/11 04:54:41;;;;;;;;;;;;;;;4.46;80.24;92373.91;1049993;56;20245;-84
2021/03/11 04:56:45;;;;;;;;;;;;;;;4.54;80.43;92362.09;1060165;48;20282;-86
2021/03/11 05:01:05;;;;;;;;;;;;;;;4.51;79.77;92379.50;1348000;39;21194;31
2021/03/11 05:02:20;;;;;;;;;;;;;;;4.53;80.05;92379.87;1205635;39;20233;-85
2021/03/11 05:03:25;;;;;;;;;;;;;;;4.57;80.08;92376.44;1367647;39;20271;31
2021/03/11 05:04:25;;;;;;;;;;;;;;;4.55;79.66;92377.56;1058895;49;20251;-84
2021/03/11 05:05:35;;;;;;;;;;;;;;;4.60;80.17;92383.56;1050569;56;21107;-85
2021/03/11 05:06:36;;;;;;;;;;;;;;;4.59;80.02;92382.09;1048255;56;20106;-84
2021/03/11 05:07:36;;;;;;;;;;;;;;;4.59;80.05;92390.03;1051858;56;20164;-84
2021/03/11 05:08:37;;;;;;;;;;;;;;;4.60;80.51;92384.31;1054332;56;20182;-84
2021/03/11 05:09:37;;;;;;;;;;;;;;;4.60;80.67;92379.03;1056588;56;20183;-84
2021/03/11 05:10:38;;;;;;;;;;;;;;;4.65;80.29;92391.09;1056578;56;20190;-84
2021/03/11 05:11:38;;;;;;;;;;;;;;;4.75;79.03;92388.31;1054207;56;20235;-85
2021/03/11 05:12:38;;;;;;;;;;;;;;;4.74;79.05;92386.06;1052469;56;20179;-84
2021/03/11 05:13:40;;;;;;;;;;;;;;;4.72;80.16;92389.09;1051363;56;20193;-85
2021/03/11 05:15:57;;;;;;;;;;;;;;;4.76;79.23;92373.19;1191900;39;20197;-85
2021/03/11 05:17:11;;;;;;;;;;;;;;;4.78;79.39;92386.75;1371717;39;21176;31
2021/03/11 05:18:15;;;;;;;;;;;;;;;4.77;78.28;92387.91;1107971;39;20274;-85
2021/03/11 05:19:20;;;;;;;;;;;;;;;4.88;78.08;92385.91;1432566;39;21133;31
2021/03/11 05:20:33;;;;;;;;;;;;;;;4.93;78.03;92377.50;1369415;39;20378;31
2021/03/11 05:21:38;;;;;;;;;;;;;;;4.93;77.94;92392.66;1282770;39;21582;31
2021/03/11 05:22:40;;;;;;;;;;;;;;;4.95;77.41;92391.09;1427412;39;20218;31
2021/03/11 05:23:42;;;;;;;;;;;;;;;5.01;76.85;92394.06;1399617;39;20143;31
2021/03/11 05:24:43;;;;;;;;;;;;;;;4.95;76.80;92399.03;1198650;39;20253;31
2021/03/11 05:25:48;;;;;;;;;;;;;;;4.94;77.78;92391.50;1330150;39;20237;31
2021/03/11 05:26:48;;;;;;;;;;;;;;;5.00;77.13;92425.09;1052834;49;20184;-85
2021/03/11 05:27:49;;;;;;;;;;;;;;;5.01;76.98;92400.13;1050056;56;20172;-88
2021/03/11 05:28:53;;;;;;;;;;;;;;;5.10;76.12;92396.97;1102154;39;20196;31
2021/03/11 05:31:09;;;;;;;;;;;;;;;5.10;76.98;92401.53;1435953;39;20241;31
2021/03/11 05:32:14;;;;;;;;;;;;;;;5.03;76.63;92395.16;1431888;39;20936;31
2021/03/11 05:33:17;;;;;;;;;;;;;;;5.09;75.85;92400.00;1413373;39;20263;31
2021/03/11 05:34:31;;;;;;;;;;;;;;;5.07;76.80;92395.13;1119905;39;21176;31
2021/03/11 05:35:36;;;;;;;;;;;;;;;5.09;76.44;92392.06;1345564;39;20242;31
2021/03/11 05:38:42;;;;;;;;;;;;;;;5.20;75.65;92382.84;1054741;56;20153;-84
2021/03/11 05:39:47;;;;;;;;;;;;;;;5.27;75.45;92380.09;1307988;39;20300;31
2021/03/11 05:40:52;;;;;;;;;;;;;;;5.25;75.39;92381.63;1419584;39;20242;31
2021/03/11 05:42:06;;;;;;;;;;;;;;;5.18;74.85;92387.03;1425895;39;20190;-84
2021/03/11 05:43:20;;;;;;;;;;;;;;;5.24;75.52;92388.09;1416726;39;20206;31
2021/03/11 05:44:23;;;;;;;;;;;;;;;5.28;74.50;92383.50;1427735;39;38987;31
2021/03/11 05:45:27;;;;;;;;;;;;;;;5.29;75.11;92388.38;1251946;39;20823;31
2021/03/11 05:46:40;;;;;;;;;;;;;;;5.31;74.13;92385.34;1083261;39;21136;31
2021/03/11 05:50:00;;;;;;;;;;;;;;;5.29;74.95;92382.34;1410638;39;20213;31
2021/03/11 05:51:05;;;;;;;;;;;;;;;5.29;73.97;92398.25;1087763;39;20212;31
2021/03/11 05:55:19;;;;;;;;;;;;;;;5.46;73.77;92377.94;1443550;39;20201;31
2021/03/11 05:56:33;;;;;;;;;;;;;;;5.40;74.48;92382.19;1441750;39;20206;31
2021/03/11 05:57:47;;;;;;;;;;;;;;;5.43;74.14;92384.03;1431269;39;20607;31
2021/03/11 05:58:54;;;;;;;;;;;;;;;5.50;73.27;92391.91;1437573;39;20261;31
2021/03/11 06:00:07;;;;;;;;;;;;;;;5.47;73.65;92387.37;1420898;39;21301;31
2021/03/11 06:01:10;;;;;;;;;;;;;;;5.42;73.69;92379.91;1422773;39;20187;31
2021/03/11 06:02:14;;;;;;;;;;;;;;;5.42;73.98;92388.59;1429054;39;20246;31
2021/03/11 06:05:22;;;;;;;;;;;;;;;5.56;71.88;92384.97;1202444;39;20190;-82
2021/03/11 06:06:24;;;;;;;;;;;;;;;5.51;73.13;92407.41;1060097;49;20257;-84
2021/03/11 06:07:25;;;;;;;;;;;;;;;5.48;73.35;92383.59;1044246;56;20217;-82
2021/03/11 06:08:26;;;;;;;;;;;;;;;5.54;71.68;92385.41;1045076;57;20153;-84
2021/03/11 06:10:42;;;;;;;;;;;;;;;5.53;72.97;92394.50;1327157;39;20239;-86
2021/03/11 06:11:45;;;;;;;;;;;;;;;5.55;72.75;92389.53;1431187;39;20638;31
2021/03/11 06:13:52;;;;;;;;;;;;;;;5.58;71.88;92392.56;1401738;39;20210;31
2021/03/11 06:15:12;;;;;;;;;;;;;;;5.55;72.95;92380.84;1419953;39;20977;31
2021/03/11 06:16:18;;;;;;;;;;;;;;;5.56;72.69;92383.09;1431625;39;22455;31
2021/03/11 06:17:32;;;;;;;;;;;;;;;5.60;72.14;92382.28;1431577;39;21189;31
2021/03/11 06:18:36;;;;;;;;;;;;;;;5.54;72.57;92376.69;1430868;39;21581;31
2021/03/11 06:19:49;;;;;;;;;;;;;;;5.53;71.58;92375.94;1446309;39;20289;31
2021/03/11 06:20:53;;;;;;;;;;;;;;;5.53;72.66;92375.94;1427531;39;21192;31
2021/03/11 06:23:01;;;;;;;;;;;;;;;5.65;71.71;92366.66;1436409;39;22403;31
2021/03/11 06:24:14;;;;;;;;;;;;;;;5.69;71.49;92379.87;1433825;39;20991;31
2021/03/11 06:27:35;;;;;;;;;;;;;;;5.71;71.56;92362.41;1427573;39;20259;31
2021/03/11 06:28:45;;;;;;;;;;;;;;;5.78;71.24;92364.19;1428152;39;20175;31
2021/03/11 06:29:50;;;;;;;;;;;;;;;5.78;70.71;92359.62;1434976;39;20186;31
2021/03/11 06:30:53;;;;;;;;;;;;;;;5.82;70.67;92364.91;1431941;39;20213;31
2021/03/11 06:33:02;;;;;;;;;;;;;;;5.79;70.75;92349.78;1439528;39;20218;31
2021/03/11 06:34:15;;;;;;;;;;;;;;;5.77;70.49;92363.44;1430815;39;20289;31
2021/03/11 06:35:20;;;;;;;;;;;;;;;5.83;71.40;92371.69;1054190;49;20247;-83
2021/03/11 06:36:22;;;;;;;;;;;;;;;5.99;70.51;92369.19;1050591;39;20177;31
2021/03/11 06:37:35;;;;;;;;;;;;;;;5.93;70.77;92349.59;1429829;39;20285;31
2021/03/11 06:38:36;;;;;;;;;;;;;;;5.94;70.84;92358.28;1366202;39;21212;31
2021/03/11 06:41:47;;;;;;;;;;;;;;;6.01;70.46;92355.50;1443634;39;20185;31
2021/03/11 06:43:00;;;;;;;;;;;;;;;6.00;70.30;92354.75;1428830;39;20323;31
2021/03/11 06:44:14;;;;;;;;;;;;;;;5.96;71.90;92358.63;1438771;39;20260;31
2021/03/11 06:45:28;;;;;;;;;;;;;;;6.08;70.71;92359.97;1430217;39;21183;31
2021/03/11 06:46:43;;;;;;;;;;;;;;;6.07;70.77;92361.88;1423045;39;20976;31